sensor_id;sensor_type;location;lat;lon;timestamp;P1;durP1;ratioP1;P2;durP2;ratioP2
71947;SDS011;63257;55.082;38.772;2022-10-17T00:01:03;14.32;;;7.43;;
71947;SDS011;63257;55.082;38.772;2022-10-17T00:03:30;14.50;;;7.50;;
71947;SDS011;63257;55.082;38.772;2022-10-17T00:05:57;15.25;;;8.05;;
71947;SDS011;63257;55.082;38.772;2022-10-17T00:12:35;15.40;;;8.27;;
71947;SDS011;63257;55.082;38.772;2022-10-17T00:15:01;14.80;;;8.02;;
71947;SDS011;63257;55.082;38.772;2022-10-17T00:17:29;12.75;;;7.95;;
71947;SDS011;63257;55.082;38.772;2022-10-17T00:23:36;14.93;;;7.30;;
71947;SDS011;63257;55.082;38.772;2022-10-17T00:28:58;15.10;;;8.47;;
71947;SDS011;63257;55.082;38.772;2022-10-17T00:34:39;16.65;;;8.25;;
71947;SDS011;63257;55.082;38.772;2022-10-17T00:37:05;16.60;;;8.43;;
71947;SDS011;63257;55.082;38.772;2022-10-17T00:39:31;15.00;;;8.40;;
71947;SDS011;63257;55.082;38.772;2022-10-17T00:41:57;14.90;;;8.80;;
71947;SDS011;63257;55.082;38.772;2022-10-17T00:48:43;14.50;;;8.15;;
71947;SDS011;63257;55.082;38.772;2022-10-17T00:51:10;14.57;;;8.35;;
71947;SDS011;63257;55.082;38.772;2022-10-17T00:53:36;16.15;;;8.82;;
71947;SDS011;63257;55.082;38.772;2022-10-17T00:58:42;16.47;;;9.20;;
71947;SDS011;63257;55.082;38.772;2022-10-17T01:01:08;18.40;;;9.40;;
71947;SDS011;63257;55.082;38.772;2022-10-17T01:03:36;17.77;;;9.18;;
71947;SDS011;63257;55.082;38.772;2022-10-17T01:10:14;14.77;;;8.50;;
71947;SDS011;63257;55.082;38.772;2022-10-17T01:20:28;16.83;;;8.90;;
71947;SDS011;63257;55.082;38.772;2022-10-17T01:27:22;16.67;;;9.20;;
71947;SDS011;63257;55.082;38.772;2022-10-17T01:32:39;16.88;;;8.50;;
71947;SDS011;63257;55.082;38.772;2022-10-17T01:35:27;16.93;;;9.30;;
71947;SDS011;63257;55.082;38.772;2022-10-17T01:49:03;16.75;;;8.43;;
71947;SDS011;63257;55.082;38.772;2022-10-17T01:51:34;16.48;;;8.70;;
71947;SDS011;63257;55.082;38.772;2022-10-17T01:54:10;15.40;;;8.35;;
71947;SDS011;63257;55.082;38.772;2022-10-17T01:56:37;16.97;;;8.60;;
71947;SDS011;63257;55.082;38.772;2022-10-17T01:59:12;17.17;;;9.23;;
71947;SDS011;63257;55.082;38.772;2022-10-17T02:01:45;20.38;;;8.80;;
71947;SDS011;63257;55.082;38.772;2022-10-17T02:04:17;14.60;;;8.00;;
71947;SDS011;63257;55.082;38.772;2022-10-17T02:06:43;16.40;;;8.23;;
71947;SDS011;63257;55.082;38.772;2022-10-17T02:26:52;15.90;;;8.17;;
71947;SDS011;63257;55.082;38.772;2022-10-17T02:29:13;17.13;;;7.90;;
71947;SDS011;63257;55.082;38.772;2022-10-17T02:34:37;16.37;;;8.67;;
71947;SDS011;63257;55.082;38.772;2022-10-17T02:37:09;14.95;;;8.18;;
71947;SDS011;63257;55.082;38.772;2022-10-17T02:39:37;15.10;;;8.27;;
71947;SDS011;63257;55.082;38.772;2022-10-17T02:46:11;16.15;;;8.27;;
71947;SDS011;63257;55.082;38.772;2022-10-17T02:53:05;16.77;;;7.57;;
71947;SDS011;63257;55.082;38.772;2022-10-17T02:55:38;15.17;;;8.10;;
71947;SDS011;63257;55.082;38.772;2022-10-17T02:58:23;16.70;;;7.82;;
71947;SDS011;63257;55.082;38.772;2022-10-17T03:00:52;14.48;;;7.65;;
71947;SDS011;63257;55.082;38.772;2022-10-17T03:03:19;13.67;;;7.47;;
71947;SDS011;63257;55.082;38.772;2022-10-17T03:05:49;15.27;;;7.50;;
71947;SDS011;63257;55.082;38.772;2022-10-17T03:08:16;15.48;;;7.25;;
71947;SDS011;63257;55.082;38.772;2022-10-17T03:13:59;17.08;;;7.50;;
71947;SDS011;63257;55.082;38.772;2022-10-17T03:16:26;17.30;;;8.07;;
71947;SDS011;63257;55.082;38.772;2022-10-17T03:18:55;14.23;;;7.47;;
71947;SDS011;63257;55.082;38.772;2022-10-17T03:21:21;14.80;;;7.38;;
71947;SDS011;63257;55.082;38.772;2022-10-17T03:23:47;17.38;;;8.07;;
71947;SDS011;63257;55.082;38.772;2022-10-17T03:26:14;15.38;;;7.50;;
71947;SDS011;63257;55.082;38.772;2022-10-17T03:33:06;17.10;;;7.75;;
71947;SDS011;63257;55.082;38.772;2022-10-17T03:35:32;16.08;;;7.63;;
71947;SDS011;63257;55.082;38.772;2022-10-17T03:37:58;15.07;;;7.97;;
71947;SDS011;63257;55.082;38.772;2022-10-17T03:43:20;15.27;;;7.80;;
71947;SDS011;63257;55.082;38.772;2022-10-17T03:45:46;14.70;;;7.70;;
71947;SDS011;63257;55.082;38.772;2022-10-17T03:48:18;16.25;;;7.22;;
71947;SDS011;63257;55.082;38.772;2022-10-17T03:50:44;14.85;;;7.90;;
71947;SDS011;63257;55.082;38.772;2022-10-17T03:53:11;15.53;;;7.43;;
71947;SDS011;63257;55.082;38.772;2022-10-17T03:55:37;16.20;;;7.35;;
71947;SDS011;63257;55.082;38.772;2022-10-17T03:58:02;14.85;;;7.22;;
71947;SDS011;63257;55.082;38.772;2022-10-17T04:00:28;15.32;;;7.53;;
71947;SDS011;63257;55.082;38.772;2022-10-17T04:02:57;14.48;;;7.55;;
71947;SDS011;63257;55.082;38.772;2022-10-17T04:05:24;16.80;;;7.15;;
71947;SDS011;63257;55.082;38.772;2022-10-17T04:07:52;15.85;;;7.55;;
71947;SDS011;63257;55.082;38.772;2022-10-17T04:10:42;15.55;;;7.20;;
71947;SDS011;63257;55.082;38.772;2022-10-17T04:13:08;16.05;;;8.48;;
71947;SDS011;63257;55.082;38.772;2022-10-17T04:15:34;15.13;;;7.40;;
71947;SDS011;63257;55.082;38.772;2022-10-17T04:18:00;19.13;;;7.90;;
71947;SDS011;63257;55.082;38.772;2022-10-17T04:20:26;13.93;;;7.35;;
71947;SDS011;63257;55.082;38.772;2022-10-17T04:25:44;16.50;;;7.30;;
71947;SDS011;63257;55.082;38.772;2022-10-17T04:28:10;18.02;;;7.93;;
71947;SDS011;63257;55.082;38.772;2022-10-17T04:30:37;16.33;;;7.83;;
71947;SDS011;63257;55.082;38.772;2022-10-17T04:33:04;13.52;;;6.68;;
71947;SDS011;63257;55.082;38.772;2022-10-17T04:35:29;16.33;;;8.00;;
71947;SDS011;63257;55.082;38.772;2022-10-17T04:38:01;15.53;;;7.50;;
71947;SDS011;63257;55.082;38.772;2022-10-17T04:40:27;14.57;;;7.28;;
71947;SDS011;63257;55.082;38.772;2022-10-17T04:42:54;18.00;;;7.20;;
71947;SDS011;63257;55.082;38.772;2022-10-17T04:45:27;17.88;;;7.60;;
71947;SDS011;63257;55.082;38.772;2022-10-17T04:47:58;14.90;;;7.35;;
71947;SDS011;63257;55.082;38.772;2022-10-17T04:50:24;15.68;;;6.75;;
71947;SDS011;63257;55.082;38.772;2022-10-17T04:53:10;15.15;;;7.35;;
71947;SDS011;63257;55.082;38.772;2022-10-17T04:55:36;17.33;;;7.50;;
71947;SDS011;63257;55.082;38.772;2022-10-17T04:58:03;14.73;;;7.00;;
71947;SDS011;63257;55.082;38.772;2022-10-17T05:00:30;12.85;;;6.57;;
71947;SDS011;63257;55.082;38.772;2022-10-17T05:03:16;16.03;;;7.47;;
71947;SDS011;63257;55.082;38.772;2022-10-17T05:05:42;15.70;;;7.30;;
71947;SDS011;63257;55.082;38.772;2022-10-17T05:08:09;14.45;;;6.53;;
71947;SDS011;63257;55.082;38.772;2022-10-17T05:10:36;16.42;;;6.88;;
71947;SDS011;63257;55.082;38.772;2022-10-17T05:13:03;14.75;;;6.80;;
71947;SDS011;63257;55.082;38.772;2022-10-17T05:15:32;12.43;;;6.30;;
71947;SDS011;63257;55.082;38.772;2022-10-17T05:17:57;13.85;;;7.03;;
71947;SDS011;63257;55.082;38.772;2022-10-17T05:20:26;17.37;;;7.07;;
71947;SDS011;63257;55.082;38.772;2022-10-17T05:22:53;15.20;;;6.55;;
71947;SDS011;63257;55.082;38.772;2022-10-17T05:25:19;14.65;;;7.30;;
71947;SDS011;63257;55.082;38.772;2022-10-17T05:27:45;14.97;;;6.70;;
71947;SDS011;63257;55.082;38.772;2022-10-17T05:30:13;15.15;;;7.50;;
71947;SDS011;63257;55.082;38.772;2022-10-17T05:32:39;14.13;;;7.30;;
71947;SDS011;63257;55.082;38.772;2022-10-17T05:35:06;13.93;;;6.93;;
71947;SDS011;63257;55.082;38.772;2022-10-17T05:37:34;13.65;;;7.00;;
71947;SDS011;63257;55.082;38.772;2022-10-17T05:40:01;17.33;;;6.88;;
71947;SDS011;63257;55.082;38.772;2022-10-17T05:42:29;13.38;;;7.00;;
71947;SDS011;63257;55.082;38.772;2022-10-17T05:44:56;14.63;;;6.80;;
71947;SDS011;63257;55.082;38.772;2022-10-17T05:47:24;18.48;;;7.55;;
71947;SDS011;63257;55.082;38.772;2022-10-17T05:49:50;14.18;;;7.15;;
71947;SDS011;63257;55.082;38.772;2022-10-17T05:52:16;16.47;;;7.60;;
71947;SDS011;63257;55.082;38.772;2022-10-17T05:54:55;16.35;;;8.10;;
71947;SDS011;63257;55.082;38.772;2022-10-17T05:57:23;14.27;;;7.28;;
71947;SDS011;63257;55.082;38.772;2022-10-17T05:59:52;13.53;;;6.60;;
71947;SDS011;63257;55.082;38.772;2022-10-17T06:02:19;16.02;;;6.95;;
71947;SDS011;63257;55.082;38.772;2022-10-17T06:04:48;13.73;;;6.72;;
71947;SDS011;63257;55.082;38.772;2022-10-17T06:07:15;13.98;;;6.55;;
71947;SDS011;63257;55.082;38.772;2022-10-17T06:09:42;12.05;;;6.15;;
71947;SDS011;63257;55.082;38.772;2022-10-17T06:12:09;12.52;;;6.03;;
71947;SDS011;63257;55.082;38.772;2022-10-17T06:14:35;11.40;;;5.78;;
71947;SDS011;63257;55.082;38.772;2022-10-17T06:17:04;13.48;;;6.57;;
71947;SDS011;63257;55.082;38.772;2022-10-17T06:19:30;15.10;;;6.75;;
71947;SDS011;63257;55.082;38.772;2022-10-17T06:21:57;14.00;;;6.40;;
71947;SDS011;63257;55.082;38.772;2022-10-17T06:24:27;13.53;;;5.83;;
71947;SDS011;63257;55.082;38.772;2022-10-17T06:26:53;12.40;;;5.72;;
71947;SDS011;63257;55.082;38.772;2022-10-17T06:29:20;14.80;;;6.35;;
71947;SDS011;63257;55.082;38.772;2022-10-17T06:31:49;17.53;;;6.23;;
71947;SDS011;63257;55.082;38.772;2022-10-17T06:34:16;13.43;;;5.82;;
71947;SDS011;63257;55.082;38.772;2022-10-17T06:36:44;12.15;;;5.80;;
71947;SDS011;63257;55.082;38.772;2022-10-17T06:39:10;11.95;;;5.82;;
71947;SDS011;63257;55.082;38.772;2022-10-17T06:41:41;13.45;;;6.35;;
71947;SDS011;63257;55.082;38.772;2022-10-17T06:44:09;11.00;;;5.90;;
71947;SDS011;63257;55.082;38.772;2022-10-17T06:46:54;13.82;;;6.07;;
71947;SDS011;63257;55.082;38.772;2022-10-17T06:49:21;13.23;;;6.00;;
71947;SDS011;63257;55.082;38.772;2022-10-17T06:51:57;13.15;;;5.93;;
71947;SDS011;63257;55.082;38.772;2022-10-17T06:54:55;12.10;;;6.13;;
71947;SDS011;63257;55.082;38.772;2022-10-17T06:57:54;13.10;;;6.33;;
71947;SDS011;63257;55.082;38.772;2022-10-17T07:00:39;13.45;;;6.18;;
71947;SDS011;63257;55.082;38.772;2022-10-17T07:03:05;12.02;;;6.15;;
71947;SDS011;63257;55.082;38.772;2022-10-17T07:05:31;11.40;;;5.63;;
71947;SDS011;63257;55.082;38.772;2022-10-17T07:07:57;11.13;;;5.82;;
71947;SDS011;63257;55.082;38.772;2022-10-17T07:10:23;12.77;;;5.90;;
71947;SDS011;63257;55.082;38.772;2022-10-17T07:12:50;15.75;;;6.28;;
71947;SDS011;63257;55.082;38.772;2022-10-17T07:15:16;11.82;;;6.10;;
71947;SDS011;63257;55.082;38.772;2022-10-17T07:17:46;12.15;;;5.75;;
71947;SDS011;63257;55.082;38.772;2022-10-17T07:20:15;12.40;;;6.10;;
71947;SDS011;63257;55.082;38.772;2022-10-17T07:22:41;12.33;;;6.07;;
71947;SDS011;63257;55.082;38.772;2022-10-17T07:25:07;11.38;;;5.60;;
71947;SDS011;63257;55.082;38.772;2022-10-17T07:27:49;13.93;;;6.10;;
71947;SDS011;63257;55.082;38.772;2022-10-17T07:30:16;10.40;;;5.23;;
71947;SDS011;63257;55.082;38.772;2022-10-17T07:32:58;13.52;;;5.93;;
71947;SDS011;63257;55.082;38.772;2022-10-17T07:35:24;15.13;;;6.00;;
71947;SDS011;63257;55.082;38.772;2022-10-17T07:37:51;11.95;;;5.80;;
71947;SDS011;63257;55.082;38.772;2022-10-17T07:40:18;13.07;;;6.43;;
71947;SDS011;63257;55.082;38.772;2022-10-17T07:42:44;13.18;;;6.32;;
71947;SDS011;63257;55.082;38.772;2022-10-17T07:45:13;11.82;;;6.22;;
71947;SDS011;63257;55.082;38.772;2022-10-17T07:47:41;12.30;;;6.07;;
71947;SDS011;63257;55.082;38.772;2022-10-17T07:50:08;9.48;;;5.65;;
71947;SDS011;63257;55.082;38.772;2022-10-17T07:52:42;11.25;;;6.28;;
71947;SDS011;63257;55.082;38.772;2022-10-17T07:55:08;11.88;;;5.80;;
71947;SDS011;63257;55.082;38.772;2022-10-17T07:57:34;15.45;;;6.00;;
71947;SDS011;63257;55.082;38.772;2022-10-17T08:00:00;13.15;;;6.30;;
71947;SDS011;63257;55.082;38.772;2022-10-17T08:02:27;14.30;;;5.97;;
71947;SDS011;63257;55.082;38.772;2022-10-17T08:04:53;15.88;;;5.90;;
71947;SDS011;63257;55.082;38.772;2022-10-17T08:07:21;15.25;;;6.68;;
71947;SDS011;63257;55.082;38.772;2022-10-17T08:09:47;13.57;;;7.28;;
71947;SDS011;63257;55.082;38.772;2022-10-17T08:12:21;16.83;;;6.22;;
71947;SDS011;63257;55.082;38.772;2022-10-17T08:14:47;12.25;;;6.10;;
71947;SDS011;63257;55.082;38.772;2022-10-17T08:17:12;14.80;;;6.07;;
71947;SDS011;63257;55.082;38.772;2022-10-17T08:19:38;11.98;;;5.80;;
71947;SDS011;63257;55.082;38.772;2022-10-17T08:22:12;9.70;;;5.37;;
71947;SDS011;63257;55.082;38.772;2022-10-17T08:24:37;10.75;;;5.72;;
71947;SDS011;63257;55.082;38.772;2022-10-17T08:27:03;10.07;;;5.57;;
71947;SDS011;63257;55.082;38.772;2022-10-17T08:29:39;10.57;;;5.47;;
71947;SDS011;63257;55.082;38.772;2022-10-17T08:32:06;12.55;;;5.40;;
71947;SDS011;63257;55.082;38.772;2022-10-17T08:34:33;15.50;;;6.53;;
71947;SDS011;63257;55.082;38.772;2022-10-17T08:36:59;10.30;;;5.72;;
71947;SDS011;63257;55.082;38.772;2022-10-17T08:39:25;13.48;;;6.13;;
71947;SDS011;63257;55.082;38.772;2022-10-17T08:46:53;13.23;;;6.13;;
71947;SDS011;63257;55.082;38.772;2022-10-17T08:49:36;12.07;;;6.20;;
71947;SDS011;63257;55.082;38.772;2022-10-17T08:52:14;15.13;;;7.20;;
71947;SDS011;63257;55.082;38.772;2022-10-17T08:54:46;14.57;;;7.20;;
71947;SDS011;63257;55.082;38.772;2022-10-17T08:57:14;13.35;;;7.13;;
71947;SDS011;63257;55.082;38.772;2022-10-17T08:59:42;15.23;;;7.60;;
71947;SDS011;63257;55.082;38.772;2022-10-17T09:02:27;12.57;;;6.13;;
71947;SDS011;63257;55.082;38.772;2022-10-17T09:22:09;11.82;;;6.82;;
71947;SDS011;63257;55.082;38.772;2022-10-17T09:24:51;13.80;;;6.57;;
71947;SDS011;63257;55.082;38.772;2022-10-17T09:30:16;13.10;;;6.57;;
71947;SDS011;63257;55.082;38.772;2022-10-17T09:32:56;13.95;;;6.57;;
71947;SDS011;63257;55.082;38.772;2022-10-17T09:35:22;10.73;;;5.53;;
71947;SDS011;63257;55.082;38.772;2022-10-17T09:37:53;13.10;;;5.72;;
71947;SDS011;63257;55.082;38.772;2022-10-17T09:40:21;12.77;;;5.53;;
71947;SDS011;63257;55.082;38.772;2022-10-17T09:42:51;8.30;;;4.35;;
71947;SDS011;63257;55.082;38.772;2022-10-17T09:45:21;11.32;;;5.05;;
71947;SDS011;63257;55.082;38.772;2022-10-17T09:48:17;10.05;;;4.75;;
71947;SDS011;63257;55.082;38.772;2022-10-17T09:51:09;12.25;;;4.88;;
71947;SDS011;63257;55.082;38.772;2022-10-17T09:53:47;10.20;;;5.37;;
71947;SDS011;63257;55.082;38.772;2022-10-17T09:56:17;10.32;;;4.38;;
71947;SDS011;63257;55.082;38.772;2022-10-17T09:58:51;11.13;;;5.05;;
71947;SDS011;63257;55.082;38.772;2022-10-17T10:01:25;9.63;;;4.85;;
71947;SDS011;63257;55.082;38.772;2022-10-17T10:04:15;10.07;;;4.85;;
71947;SDS011;63257;55.082;38.772;2022-10-17T10:07:15;12.90;;;4.80;;
71947;SDS011;63257;55.082;38.772;2022-10-17T10:09:37;8.50;;;4.35;;
71947;SDS011;63257;55.082;38.772;2022-10-17T10:12:05;8.68;;;4.60;;
71947;SDS011;63257;55.082;38.772;2022-10-17T10:14:43;11.38;;;4.88;;
71947;SDS011;63257;55.082;38.772;2022-10-17T10:23:31;11.93;;;5.38;;
71947;SDS011;63257;55.082;38.772;2022-10-17T10:25:48;9.05;;;4.20;;
71947;SDS011;63257;55.082;38.772;2022-10-17T10:28:21;10.00;;;5.13;;
71947;SDS011;63257;55.082;38.772;2022-10-17T10:30:51;10.17;;;5.10;;
71947;SDS011;63257;55.082;38.772;2022-10-17T10:33:24;8.48;;;4.30;;
71947;SDS011;63257;55.082;38.772;2022-10-17T10:36:02;10.52;;;5.43;;
71947;SDS011;63257;55.082;38.772;2022-10-17T10:38:31;15.20;;;6.50;;
71947;SDS011;63257;55.082;38.772;2022-10-17T10:41:02;11.45;;;5.50;;
71947;SDS011;63257;55.082;38.772;2022-10-17T10:46:23;12.60;;;6.00;;
71947;SDS011;63257;55.082;38.772;2022-10-17T10:48:55;11.63;;;5.90;;
71947;SDS011;63257;55.082;38.772;2022-10-17T10:56:58;12.85;;;6.15;;
71947;SDS011;63257;55.082;38.772;2022-10-17T11:02:34;12.53;;;6.60;;
71947;SDS011;63257;55.082;38.772;2022-10-17T11:05:16;12.32;;;6.30;;
71947;SDS011;63257;55.082;38.772;2022-10-17T11:08:02;12.48;;;6.97;;
71947;SDS011;63257;55.082;38.772;2022-10-17T11:10:37;14.27;;;6.53;;
71947;SDS011;63257;55.082;38.772;2022-10-17T11:13:24;12.90;;;6.70;;
71947;SDS011;63257;55.082;38.772;2022-10-17T11:16:38;14.25;;;7.35;;
71947;SDS011;63257;55.082;38.772;2022-10-17T11:24:23;10.48;;;4.93;;
71947;SDS011;63257;55.082;38.772;2022-10-17T11:27:05;13.30;;;6.35;;
71947;SDS011;63257;55.082;38.772;2022-10-17T11:29:35;11.13;;;6.82;;
71947;SDS011;63257;55.082;38.772;2022-10-17T11:32:14;12.13;;;5.90;;
71947;SDS011;63257;55.082;38.772;2022-10-17T11:34:45;13.82;;;6.60;;
71947;SDS011;63257;55.082;38.772;2022-10-17T11:37:23;15.02;;;6.45;;
71947;SDS011;63257;55.082;38.772;2022-10-17T11:40:01;12.93;;;6.18;;
71947;SDS011;63257;55.082;38.772;2022-10-17T11:42:38;14.05;;;7.00;;
71947;SDS011;63257;55.082;38.772;2022-10-17T11:45:12;12.30;;;6.35;;
71947;SDS011;63257;55.082;38.772;2022-10-17T11:53:43;12.98;;;5.70;;
71947;SDS011;63257;55.082;38.772;2022-10-17T11:55:51;13.13;;;5.55;;
71947;SDS011;63257;55.082;38.772;2022-10-17T12:12:05;10.30;;;5.80;;
71947;SDS011;63257;55.082;38.772;2022-10-17T12:14:44;13.55;;;7.28;;
71947;SDS011;63257;55.082;38.772;2022-10-17T12:17:30;14.15;;;6.90;;
71947;SDS011;63257;55.082;38.772;2022-10-17T12:22:52;17.10;;;6.40;;
71947;SDS011;63257;55.082;38.772;2022-10-17T12:25:28;12.73;;;6.35;;
71947;SDS011;63257;55.082;38.772;2022-10-17T12:52:50;11.43;;;6.05;;
71947;SDS011;63257;55.082;38.772;2022-10-17T12:55:25;13.65;;;6.50;;
71947;SDS011;63257;55.082;38.772;2022-10-17T12:58:01;15.48;;;7.07;;
71947;SDS011;63257;55.082;38.772;2022-10-17T13:00:54;15.27;;;5.73;;
71947;SDS011;63257;55.082;38.772;2022-10-17T13:03:41;11.85;;;5.93;;
71947;SDS011;63257;55.082;38.772;2022-10-17T13:06:19;11.90;;;6.38;;
71947;SDS011;63257;55.082;38.772;2022-10-17T13:08:59;44.42;;;19.80;;
71947;SDS011;63257;55.082;38.772;2022-10-17T13:11:29;13.98;;;6.38;;
71947;SDS011;63257;55.082;38.772;2022-10-17T13:13:59;15.05;;;7.13;;
71947;SDS011;63257;55.082;38.772;2022-10-17T13:18:58;13.20;;;7.20;;
71947;SDS011;63257;55.082;38.772;2022-10-17T13:21:26;13.45;;;6.32;;
71947;SDS011;63257;55.082;38.772;2022-10-17T13:23:53;16.17;;;7.63;;
71947;SDS011;63257;55.082;38.772;2022-10-17T13:26:21;13.60;;;7.32;;
71947;SDS011;63257;55.082;38.772;2022-10-17T13:31:40;13.82;;;6.78;;
71947;SDS011;63257;55.082;38.772;2022-10-17T13:34:18;13.35;;;6.63;;
71947;SDS011;63257;55.082;38.772;2022-10-17T13:37:00;13.95;;;6.90;;
71947;SDS011;63257;55.082;38.772;2022-10-17T13:39:29;17.67;;;7.33;;
71947;SDS011;63257;55.082;38.772;2022-10-17T13:42:00;11.93;;;6.10;;
71947;SDS011;63257;55.082;38.772;2022-10-17T13:44:27;15.23;;;7.80;;
71947;SDS011;63257;55.082;38.772;2022-10-17T13:46:58;15.73;;;7.05;;
71947;SDS011;63257;55.082;38.772;2022-10-17T13:52:02;22.20;;;9.38;;
71947;SDS011;63257;55.082;38.772;2022-10-17T13:54:40;14.05;;;7.00;;
71947;SDS011;63257;55.082;38.772;2022-10-17T13:57:23;19.25;;;8.40;;
71947;SDS011;63257;55.082;38.772;2022-10-17T13:59:54;14.60;;;6.90;;
71947;SDS011;63257;55.082;38.772;2022-10-17T14:02:29;16.95;;;7.40;;
71947;SDS011;63257;55.082;38.772;2022-10-17T14:05:18;15.50;;;7.30;;
71947;SDS011;63257;55.082;38.772;2022-10-17T14:07:54;11.97;;;6.30;;
71947;SDS011;63257;55.082;38.772;2022-10-17T14:10:29;16.60;;;7.50;;
71947;SDS011;63257;55.082;38.772;2022-10-17T14:13:03;16.95;;;7.70;;
71947;SDS011;63257;55.082;38.772;2022-10-17T14:15:33;13.25;;;5.90;;
71947;SDS011;63257;55.082;38.772;2022-10-17T14:18:02;16.97;;;7.73;;
71947;SDS011;63257;55.082;38.772;2022-10-17T14:20:29;18.58;;;8.45;;
71947;SDS011;63257;55.082;38.772;2022-10-17T14:22:57;21.00;;;9.55;;
71947;SDS011;63257;55.082;38.772;2022-10-17T14:25:43;16.08;;;6.70;;
71947;SDS011;63257;55.082;38.772;2022-10-17T14:33:10;15.05;;;7.57;;
71947;SDS011;63257;55.082;38.772;2022-10-17T14:35:58;14.05;;;8.70;;
71947;SDS011;63257;55.082;38.772;2022-10-17T14:38:26;14.27;;;7.20;;
71947;SDS011;63257;55.082;38.772;2022-10-17T14:41:00;17.88;;;8.75;;
71947;SDS011;63257;55.082;38.772;2022-10-17T14:43:53;21.58;;;8.65;;
71947;SDS011;63257;55.082;38.772;2022-10-17T14:46:28;17.75;;;8.20;;
71947;SDS011;63257;55.082;38.772;2022-10-17T14:49:03;21.17;;;8.63;;
71947;SDS011;63257;55.082;38.772;2022-10-17T14:55:54;17.65;;;8.70;;
71947;SDS011;63257;55.082;38.772;2022-10-17T14:58:26;17.75;;;8.07;;
71947;SDS011;63257;55.082;38.772;2022-10-17T15:00:53;16.53;;;8.20;;
71947;SDS011;63257;55.082;38.772;2022-10-17T15:03:20;19.13;;;8.23;;
71947;SDS011;63257;55.082;38.772;2022-10-17T15:05:46;16.50;;;8.00;;
71947;SDS011;63257;55.082;38.772;2022-10-17T15:08:14;18.23;;;8.23;;
71947;SDS011;63257;55.082;38.772;2022-10-17T15:10:42;17.77;;;8.73;;
71947;SDS011;63257;55.082;38.772;2022-10-17T15:13:10;15.25;;;8.25;;
71947;SDS011;63257;55.082;38.772;2022-10-17T15:15:37;16.55;;;7.88;;
71947;SDS011;63257;55.082;38.772;2022-10-17T15:18:05;17.42;;;8.05;;
71947;SDS011;63257;55.082;38.772;2022-10-17T15:20:32;16.73;;;7.63;;
71947;SDS011;63257;55.082;38.772;2022-10-17T15:22:59;17.50;;;8.65;;
71947;SDS011;63257;55.082;38.772;2022-10-17T15:25:26;15.75;;;7.30;;
71947;SDS011;63257;55.082;38.772;2022-10-17T15:27:54;13.98;;;7.70;;
71947;SDS011;63257;55.082;38.772;2022-10-17T15:30:25;13.13;;;7.23;;
71947;SDS011;63257;55.082;38.772;2022-10-17T15:32:53;14.65;;;7.60;;
71947;SDS011;63257;55.082;38.772;2022-10-17T15:35:19;16.65;;;8.70;;
71947;SDS011;63257;55.082;38.772;2022-10-17T15:37:46;13.50;;;6.30;;
71947;SDS011;63257;55.082;38.772;2022-10-17T15:40:13;21.07;;;8.77;;
71947;SDS011;63257;55.082;38.772;2022-10-17T15:42:43;16.52;;;8.85;;
71947;SDS011;63257;55.082;38.772;2022-10-17T15:45:13;15.13;;;8.30;;
71947;SDS011;63257;55.082;38.772;2022-10-17T15:47:41;15.07;;;7.43;;
71947;SDS011;63257;55.082;38.772;2022-10-17T15:50:14;16.52;;;7.40;;
71947;SDS011;63257;55.082;38.772;2022-10-17T15:52:41;18.40;;;8.70;;
71947;SDS011;63257;55.082;38.772;2022-10-17T15:55:09;17.30;;;9.23;;
71947;SDS011;63257;55.082;38.772;2022-10-17T15:57:39;19.13;;;8.33;;
71947;SDS011;63257;55.082;38.772;2022-10-17T16:00:12;16.77;;;7.95;;
71947;SDS011;63257;55.082;38.772;2022-10-17T16:02:41;18.55;;;8.77;;
71947;SDS011;63257;55.082;38.772;2022-10-17T16:05:17;22.30;;;10.18;;
71947;SDS011;63257;55.082;38.772;2022-10-17T16:07:53;20.90;;;9.10;;
71947;SDS011;63257;55.082;38.772;2022-10-17T16:10:20;19.45;;;9.52;;
71947;SDS011;63257;55.082;38.772;2022-10-17T16:12:47;20.63;;;8.35;;
71947;SDS011;63257;55.082;38.772;2022-10-17T16:15:19;17.95;;;7.72;;
71947;SDS011;63257;55.082;38.772;2022-10-17T16:17:51;22.73;;;9.13;;
71947;SDS011;63257;55.082;38.772;2022-10-17T16:20:19;16.40;;;8.30;;
71947;SDS011;63257;55.082;38.772;2022-10-17T16:22:45;20.70;;;8.75;;
71947;SDS011;63257;55.082;38.772;2022-10-17T16:25:19;17.45;;;8.98;;
71947;SDS011;63257;55.082;38.772;2022-10-17T16:27:46;21.77;;;9.37;;
71947;SDS011;63257;55.082;38.772;2022-10-17T16:30:13;18.77;;;9.45;;
71947;SDS011;63257;55.082;38.772;2022-10-17T16:32:42;18.40;;;9.25;;
71947;SDS011;63257;55.082;38.772;2022-10-17T16:35:09;17.63;;;8.88;;
71947;SDS011;63257;55.082;38.772;2022-10-17T16:37:40;18.70;;;9.48;;
71947;SDS011;63257;55.082;38.772;2022-10-17T16:40:06;19.73;;;9.48;;
71947;SDS011;63257;55.082;38.772;2022-10-17T16:42:33;17.73;;;8.10;;
71947;SDS011;63257;55.082;38.772;2022-10-17T16:44:58;21.37;;;9.40;;
71947;SDS011;63257;55.082;38.772;2022-10-17T16:47:25;19.23;;;9.25;;
71947;SDS011;63257;55.082;38.772;2022-10-17T16:49:51;20.88;;;9.63;;
71947;SDS011;63257;55.082;38.772;2022-10-17T16:52:17;20.35;;;10.00;;
71947;SDS011;63257;55.082;38.772;2022-10-17T16:54:43;21.45;;;9.63;;
71947;SDS011;63257;55.082;38.772;2022-10-17T16:57:09;17.30;;;8.63;;
71947;SDS011;63257;55.082;38.772;2022-10-17T16:59:34;19.55;;;9.68;;
71947;SDS011;63257;55.082;38.772;2022-10-17T17:02:00;21.45;;;9.93;;
71947;SDS011;63257;55.082;38.772;2022-10-17T17:04:26;20.97;;;10.37;;
71947;SDS011;63257;55.082;38.772;2022-10-17T17:06:52;17.02;;;8.65;;
71947;SDS011;63257;55.082;38.772;2022-10-17T17:09:18;18.20;;;9.27;;
71947;SDS011;63257;55.082;38.772;2022-10-17T17:11:44;22.02;;;9.90;;
71947;SDS011;63257;55.082;38.772;2022-10-17T17:14:10;19.63;;;9.93;;
71947;SDS011;63257;55.082;38.772;2022-10-17T17:16:36;18.37;;;8.70;;
71947;SDS011;63257;55.082;38.772;2022-10-17T17:19:03;19.35;;;9.32;;
71947;SDS011;63257;55.082;38.772;2022-10-17T17:21:34;20.00;;;9.30;;
71947;SDS011;63257;55.082;38.772;2022-10-17T17:24:00;19.30;;;9.45;;
71947;SDS011;63257;55.082;38.772;2022-10-17T17:26:28;22.85;;;9.25;;
71947;SDS011;63257;55.082;38.772;2022-10-17T17:28:57;19.58;;;8.82;;
71947;SDS011;63257;55.082;38.772;2022-10-17T17:31:28;19.83;;;9.27;;
71947;SDS011;63257;55.082;38.772;2022-10-17T17:33:56;19.83;;;9.55;;
71947;SDS011;63257;55.082;38.772;2022-10-17T17:36:26;22.25;;;9.55;;
71947;SDS011;63257;55.082;38.772;2022-10-17T17:38:58;16.33;;;7.50;;
71947;SDS011;63257;55.082;38.772;2022-10-17T17:41:26;17.55;;;8.88;;
71947;SDS011;63257;55.082;38.772;2022-10-17T17:43:53;19.85;;;9.35;;
71947;SDS011;63257;55.082;38.772;2022-10-17T17:46:43;17.27;;;8.52;;
71947;SDS011;63257;55.082;38.772;2022-10-17T17:49:15;19.30;;;8.77;;
71947;SDS011;63257;55.082;38.772;2022-10-17T17:51:50;39.25;;;17.85;;
71947;SDS011;63257;55.082;38.772;2022-10-17T17:54:26;19.50;;;9.95;;
71947;SDS011;63257;55.082;38.772;2022-10-17T17:57:05;17.95;;;8.73;;
71947;SDS011;63257;55.082;38.772;2022-10-17T17:59:31;18.60;;;8.53;;
71947;SDS011;63257;55.082;38.772;2022-10-17T18:02:08;17.45;;;8.02;;
71947;SDS011;63257;55.082;38.772;2022-10-17T18:04:35;17.95;;;8.55;;
71947;SDS011;63257;55.082;38.772;2022-10-17T18:07:01;17.50;;;8.57;;